Charlottesville Albemarle Airport Charlottesville US
ICAO: KCHO
IATA: CHO
Category: Medium
Scheduled Services: Yes

Elevation: 639 ft
TransAlt. 18000 ft.

Airport Communications:
POTOMAC APP/DEP:132.85
ASOS:118.425
ATIS:118.425
CTAF:124.5
GND:121.9
LEESBURG RDO:122.2
TWR:124.5
UNICOM:122.95

KCHO Zoom In..

If you have problems with the map follow the link
https://www.worldairports.se/pages/airport.php?
ICAO=KCHO

Runways:

(A) RW 03 length 6801 ft width 150 ft
ILS 111.70 / hdg 30

(B) RW 21 length 6801 ft width 150 ft
---- / hdg 210

Location; KCHO
Day. 20 / Time. 07.53 Zulu
* Altimeter: 30.21
* Temperature: -03° c. -26.6°f.
* Wind from: VRB° Speed 06 kn.
Dewpoint: -13° c.
Visibility: 10 Statute Miles.
Clouds: Few 4500 ft.

KCHO 200753Z AUTO VRB06KT 10SM FEW045 M03/M13 A3021 RMK AO2 SLP234 T10281128


Wind From VRB°
Speed 06 kn.

 
 
jpsmedia worldairports.se 2020   terms of use